createdAt,value
2022-10-01T00:01:17.874Z,36.13
2022-10-01T00:03:50.537Z,34.60
2022-10-01T00:06:21.072Z,35.53
2022-10-01T00:08:50.429Z,39.67
2022-10-01T00:11:21.592Z,36.45
2022-10-01T00:13:51.234Z,41.15
2022-10-01T00:16:22.363Z,38.08
2022-10-01T00:18:53.525Z,38.45
2022-10-01T00:21:35.318Z,38.70
2022-10-01T00:24:06.571Z,37.72
2022-10-01T00:26:37.305Z,35.08
2022-10-01T00:29:13.852Z,36.15
2022-10-01T00:31:42.909Z,35.70
2022-10-01T00:34:13.213Z,39.40
2022-10-01T00:36:42.324Z,34.88
2022-10-01T00:39:12.347Z,39.47
2022-10-01T00:41:40.808Z,37.47
2022-10-01T00:44:38.225Z,35.97
2022-10-01T00:47:18.762Z,36.80
2022-10-01T00:49:48.795Z,37.60
2022-10-01T00:52:21.679Z,40.22
2022-10-01T00:54:53.782Z,38.92
2022-10-01T00:57:25.479Z,51.10
2022-10-01T00:59:57.365Z,44.67
2022-10-01T01:02:25.720Z,43.63
2022-10-01T01:04:53.722Z,40.03
2022-10-01T01:07:22.484Z,42.38
2022-10-01T01:09:54.171Z,42.90
2022-10-01T01:12:49.793Z,36.78
2022-10-01T01:15:50.191Z,34.13
2022-10-01T01:18:30.194Z,41.53
2022-10-01T01:21:20.147Z,34.88
2022-10-01T01:24:11.125Z,42.80
2022-10-01T01:26:57.792Z,42.40
2022-10-01T01:29:55.424Z,37.67
2022-10-01T01:32:38.772Z,42.08
2022-10-01T01:35:11.470Z,42.38
2022-10-01T01:37:45.669Z,39.90
2022-10-01T01:40:17.496Z,40.88
2022-10-01T01:42:48.963Z,41.15
2022-10-01T01:45:22.724Z,42.50
2022-10-01T01:48:41.889Z,41.38
2022-10-01T01:51:09.832Z,41.75
2022-10-01T01:53:38.454Z,46.45
2022-10-01T01:56:07.973Z,44.83
2022-10-01T01:58:37.682Z,44.17
2022-10-01T02:03:35.570Z,44.70
2022-10-01T02:06:38.206Z,52.47
2022-10-01T02:09:29.218Z,43.78
2022-10-01T02:12:35.741Z,44.00
2022-10-01T02:15:19.484Z,45.47
2022-10-01T02:18:02.729Z,47.58
2022-10-01T02:20:34.107Z,42.78
2022-10-01T02:23:10.232Z,45.88
2022-10-01T02:25:46.482Z,45.63
2022-10-01T02:28:18.316Z,47.00
2022-10-01T02:30:48.163Z,43.47
2022-10-01T02:33:22.167Z,46.08
2022-10-01T02:35:53.708Z,49.38
2022-10-01T02:38:25.094Z,48.00
2022-10-01T02:41:00.978Z,43.72
2022-10-01T02:43:56.887Z,54.90
2022-10-01T02:46:45.986Z,49.05
2022-10-01T02:49:15.140Z,49.47
2022-10-01T02:51:55.198Z,48.65
2022-10-01T02:57:09.797Z,45.80
2022-10-01T02:59:37.873Z,54.58
2022-10-01T03:02:06.407Z,51.75
2022-10-01T03:04:34.429Z,47.63
2022-10-01T03:07:04.489Z,45.58
2022-10-01T03:09:34.581Z,50.45
2022-10-01T03:12:03.254Z,43.08
2022-10-01T03:14:32.432Z,45.22
2022-10-01T03:17:00.601Z,43.80
2022-10-01T03:19:28.668Z,48.67
2022-10-01T03:21:56.629Z,45.20
2022-10-01T03:24:24.858Z,45.70
2022-10-01T03:26:52.881Z,45.65
2022-10-01T03:29:20.868Z,46.65
2022-10-01T03:31:49.279Z,48.53
2022-10-01T03:34:17.645Z,50.67
2022-10-01T03:36:46.122Z,50.83
2022-10-01T03:39:14.609Z,46.50
2022-10-01T03:41:42.612Z,47.25
2022-10-01T03:44:10.946Z,41.17
2022-10-01T03:46:39.246Z,47.88
2022-10-01T03:49:07.102Z,49.60
2022-10-01T03:51:37.631Z,46.95
2022-10-01T03:54:07.808Z,43.65
2022-10-01T03:56:36.689Z,48.80
2022-10-01T03:59:04.875Z,47.20
2022-10-01T04:01:33.508Z,47.42
2022-10-01T04:04:01.761Z,44.55
2022-10-01T04:06:29.838Z,48.85
2022-10-01T04:08:58.062Z,54.55
2022-10-01T04:11:26.217Z,52.92
2022-10-01T04:13:54.146Z,51.60
2022-10-01T04:16:22.244Z,60.83
2022-10-01T04:18:50.354Z,55.55
2022-10-01T04:21:18.292Z,61.10
2022-10-01T04:23:46.650Z,59.58
2022-10-01T04:26:14.672Z,57.28
2022-10-01T04:28:45.274Z,60.92
2022-10-01T04:31:26.609Z,64.82
2022-10-01T04:33:56.468Z,60.55
2022-10-01T04:36:26.400Z,56.80
2022-10-01T04:39:00.811Z,55.15
2022-10-01T04:41:32.258Z,53.88
2022-10-01T04:44:01.358Z,60.67
2022-10-01T04:46:30.646Z,51.83
2022-10-01T04:48:59.096Z,59.42
2022-10-01T04:51:27.108Z,56.53
2022-10-01T04:53:55.679Z,54.65
2022-10-01T04:56:23.859Z,55.47
2022-10-01T04:58:51.964Z,55.80
2022-10-01T05:01:19.917Z,58.33
2022-10-01T05:03:48.125Z,55.47
2022-10-01T05:06:16.078Z,56.15
2022-10-01T05:08:43.934Z,55.97
2022-10-01T05:11:11.990Z,53.17
2022-10-01T05:13:39.918Z,51.60
2022-10-01T05:16:08.450Z,53.50
2022-10-01T05:18:36.882Z,54.55
2022-10-01T05:21:11.577Z,56.05
2022-10-01T05:23:39.906Z,53.15
2022-10-01T05:26:08.358Z,60.45
2022-10-01T05:28:36.937Z,56.42
2022-10-01T05:31:05.650Z,53.95
2022-10-01T05:33:34.244Z,50.67
2022-10-01T05:36:05.176Z,55.85
2022-10-01T05:38:37.305Z,54.40
2022-10-01T05:41:06.403Z,53.00
2022-10-01T05:43:36.205Z,53.22
2022-10-01T05:46:07.854Z,49.83
2022-10-01T05:48:37.092Z,51.22
2022-10-01T05:51:08.196Z,50.53
2022-10-01T05:53:39.057Z,57.17
2022-10-01T05:56:08.055Z,55.67
2022-10-01T05:58:36.391Z,60.13
2022-10-01T06:01:05.054Z,58.50
2022-10-01T06:03:33.245Z,54.00
2022-10-01T06:06:01.379Z,54.42
2022-10-01T06:08:29.291Z,56.38
2022-10-01T06:11:01.874Z,55.42
2022-10-01T06:13:29.941Z,53.28
2022-10-01T06:15:58.228Z,51.67
2022-10-01T06:18:27.396Z,53.47
2022-10-01T06:20:55.467Z,51.97
2022-10-01T06:23:23.764Z,50.38
2022-10-01T06:25:54.928Z,50.22
2022-10-01T06:28:24.372Z,47.55
2022-10-01T06:30:52.382Z,55.28
2022-10-01T06:33:20.991Z,49.53
2022-10-01T06:35:52.914Z,44.00
2022-10-01T06:38:22.940Z,46.55
2022-10-01T06:40:59.089Z,47.10
2022-10-01T06:43:30.040Z,46.35
2022-10-01T06:46:03.387Z,41.90
2022-10-01T06:48:32.744Z,43.78
2022-10-01T06:51:01.873Z,45.97
2022-10-01T06:53:30.027Z,46.22
2022-10-01T06:56:03.596Z,42.80
2022-10-01T06:58:32.452Z,42.95
2022-10-01T07:01:02.533Z,40.17
2022-10-01T07:03:31.897Z,37.42
2022-10-01T07:06:08.835Z,39.20
2022-10-01T07:08:36.988Z,57.80
2022-10-01T07:11:05.501Z,49.17
2022-10-01T07:13:33.562Z,35.97
2022-10-01T07:16:04.687Z,35.72
2022-10-01T07:18:33.307Z,37.72
2022-10-01T07:21:01.940Z,37.25
2022-10-01T07:23:30.376Z,39.00
2022-10-01T07:25:59.086Z,41.63
2022-10-01T07:28:28.315Z,36.78
2022-10-01T07:31:06.808Z,36.73
2022-10-01T07:33:35.059Z,34.88
2022-10-01T07:36:08.140Z,38.58
2022-10-01T07:38:36.409Z,32.40
2022-10-01T07:41:04.790Z,32.67
2022-10-01T07:43:34.820Z,32.08
2022-10-01T07:46:05.866Z,28.70
2022-10-01T07:48:34.303Z,29.75
2022-10-01T07:51:02.751Z,27.30
2022-10-01T07:53:31.957Z,27.40
2022-10-01T07:56:03.857Z,26.85
2022-10-01T07:58:32.500Z,30.55
2022-10-01T08:01:04.902Z,28.23
2022-10-01T08:03:33.439Z,46.10
2022-10-01T08:06:05.916Z,76.72
2022-10-01T08:08:34.769Z,25.73
2022-10-01T08:11:04.092Z,25.70
2022-10-01T08:13:32.295Z,25.90
2022-10-01T08:16:04.260Z,31.20
2022-10-01T08:18:34.000Z,23.38
2022-10-01T08:21:02.915Z,22.75
2022-10-01T08:23:33.568Z,29.75
2022-10-01T08:26:07.572Z,26.88
2022-10-01T08:28:36.694Z,25.58
2022-10-01T08:31:10.066Z,23.85
2022-10-01T08:33:39.019Z,25.25
2022-10-01T08:36:10.659Z,25.17
2022-10-01T08:38:40.403Z,20.75
2022-10-01T08:43:59.031Z,22.77
2022-10-01T08:46:32.150Z,20.67
2022-10-01T08:49:07.910Z,17.52
2022-10-01T08:52:00.316Z,19.90
2022-10-01T08:54:32.470Z,24.67
2022-10-01T08:57:04.109Z,18.65
2022-10-01T08:59:42.108Z,26.95
2022-10-01T09:02:33.967Z,17.30
2022-10-01T09:05:49.870Z,18.38
2022-10-01T09:08:44.617Z,15.88
2022-10-01T09:11:51.347Z,16.27
2022-10-01T09:14:34.872Z,14.43
2022-10-01T09:17:03.470Z,18.38
2022-10-01T09:19:47.854Z,13.60
2022-10-01T09:23:03.216Z,16.23
2022-10-01T09:25:35.346Z,12.65
2022-10-01T09:28:16.004Z,12.82
2022-10-01T09:31:01.743Z,14.27
2022-10-01T09:33:38.888Z,16.20
2022-10-01T09:36:47.707Z,15.15
2022-10-01T09:39:41.471Z,15.23
2022-10-01T09:42:09.898Z,17.33
2022-10-01T09:44:38.527Z,17.15
2022-10-01T09:47:22.708Z,16.17
2022-10-01T09:49:51.430Z,20.27
2022-10-01T09:52:36.665Z,19.48
2022-10-01T09:55:29.976Z,18.67
2022-10-01T09:58:01.917Z,18.08
2022-10-01T10:00:32.058Z,23.77
2022-10-01T10:03:01.126Z,20.23
2022-10-01T10:05:40.014Z,18.35
2022-10-01T10:08:27.691Z,16.17
2022-10-01T10:11:06.784Z,15.40
2022-10-01T10:13:41.060Z,17.88
2022-10-01T10:16:35.569Z,27.23
2022-10-01T10:19:26.261Z,21.25
2022-10-01T10:22:00.918Z,18.73
2022-10-01T10:24:35.080Z,20.80
2022-10-01T10:27:06.660Z,16.77
2022-10-01T10:29:36.790Z,16.70
2022-10-01T10:32:14.813Z,18.10
2022-10-01T10:34:48.989Z,21.67
2022-10-01T10:37:34.501Z,14.20
2022-10-01T10:40:06.628Z,13.52
2022-10-01T10:42:39.004Z,16.67
2022-10-01T10:45:17.619Z,16.75
2022-10-01T10:47:53.402Z,14.55
2022-10-01T10:50:37.185Z,14.95
2022-10-01T10:53:22.315Z,15.25
2022-10-01T10:56:24.249Z,14.05
2022-10-01T10:58:54.131Z,14.32
2022-10-01T11:04:01.572Z,14.43
2022-10-01T11:06:30.390Z,12.48
2022-10-01T11:09:02.722Z,13.73
2022-10-01T11:11:33.799Z,11.48
2022-10-01T11:14:10.645Z,17.83
2022-10-01T11:17:38.402Z,12.52
2022-10-01T11:20:10.943Z,13.88
2022-10-01T11:23:08.287Z,11.98
2022-10-01T11:25:45.433Z,10.48
2022-10-01T11:28:32.856Z,12.88
2022-10-01T11:31:08.487Z,11.32
2022-10-01T11:34:15.501Z,13.73
2022-10-01T11:37:03.776Z,12.13
2022-10-01T11:39:35.804Z,13.60
2022-10-01T11:42:11.240Z,12.90
2022-10-01T11:45:00.774Z,11.35
2022-10-01T11:47:37.892Z,9.90
2022-10-01T11:50:21.771Z,11.38
2022-10-01T11:53:09.977Z,12.35
2022-10-01T11:56:21.392Z,9.93
2022-10-01T11:59:14.161Z,9.85
2022-10-01T12:02:20.581Z,10.25
2022-10-01T12:05:10.547Z,10.32
2022-10-01T12:07:51.507Z,10.45
2022-10-01T12:10:44.290Z,9.93
2022-10-01T12:13:33.357Z,13.77
2022-10-01T12:16:37.405Z,11.25
2022-10-01T12:19:44.382Z,11.02
2022-10-01T12:22:24.382Z,8.93
2022-10-01T12:24:54.420Z,9.57
2022-10-01T12:27:41.005Z,8.02
2022-10-01T12:30:15.454Z,9.25
2022-10-01T12:32:49.707Z,9.10
2022-10-01T12:35:48.367Z,7.35
2022-10-01T12:38:54.341Z,8.68
2022-10-01T12:41:42.162Z,7.80
2022-10-01T12:44:34.895Z,13.68
2022-10-01T12:47:17.471Z,8.82
2022-10-01T12:49:48.398Z,13.60
2022-10-01T12:52:47.542Z,9.20
2022-10-01T12:55:34.433Z,9.75
2022-10-01T12:58:21.153Z,9.00
2022-10-01T13:01:24.342Z,8.70
2022-10-01T13:04:03.017Z,11.35
2022-10-01T13:06:54.918Z,10.80
2022-10-01T13:09:36.413Z,10.85
2022-10-01T13:12:27.423Z,13.75
2022-10-01T13:14:56.718Z,12.23
2022-10-01T13:17:54.511Z,14.07
2022-10-01T13:20:31.634Z,17.98
2022-10-01T13:23:09.982Z,12.32
2022-10-01T13:25:46.678Z,12.25
2022-10-01T13:28:39.269Z,13.98
2022-10-01T13:31:14.886Z,12.10
2022-10-01T13:33:53.561Z,14.25
2022-10-01T13:36:34.976Z,18.20
2022-10-01T13:39:03.500Z,12.30
2022-10-01T13:41:35.289Z,14.93
2022-10-01T13:44:10.144Z,12.23
2022-10-01T13:46:55.232Z,15.35
2022-10-01T13:49:32.184Z,13.23
2022-10-01T13:52:03.395Z,13.65
2022-10-01T13:54:39.993Z,12.55
2022-10-01T13:57:10.894Z,13.07
2022-10-01T13:59:39.734Z,14.63
2022-10-01T14:02:32.397Z,14.45
2022-10-01T14:05:25.111Z,13.60
2022-10-01T14:10:59.114Z,17.40
2022-10-01T14:13:49.699Z,14.93
2022-10-01T14:16:20.737Z,18.10
2022-10-01T14:18:50.022Z,18.00
2022-10-01T14:21:45.222Z,14.57
2022-10-01T14:24:43.978Z,14.82
2022-10-01T14:27:43.122Z,13.23
2022-10-01T14:30:28.174Z,14.13
2022-10-01T14:33:13.403Z,15.82
2022-10-01T14:35:48.907Z,16.67
2022-10-01T14:38:22.214Z,13.98
2022-10-01T14:40:57.010Z,17.20
2022-10-01T14:43:33.377Z,23.75
2022-10-01T14:46:23.445Z,15.10
2022-10-01T14:49:01.551Z,15.73
2022-10-01T14:51:35.815Z,13.40
2022-10-01T14:54:05.048Z,15.25
2022-10-01T14:56:34.381Z,18.33
2022-10-01T14:59:05.745Z,15.95
2022-10-01T15:01:34.782Z,14.88
2022-10-01T15:04:18.477Z,17.85
2022-10-01T15:06:51.112Z,17.05
2022-10-01T15:09:20.787Z,17.13
2022-10-01T15:11:51.963Z,17.63
2022-10-01T15:14:24.881Z,17.70
2022-10-01T15:16:53.984Z,17.38
2022-10-01T15:19:26.341Z,14.05
2022-10-01T15:22:03.957Z,14.52
2022-10-01T15:24:38.155Z,15.30
2022-10-01T15:27:08.653Z,15.35
2022-10-01T15:29:40.373Z,14.50
2022-10-01T15:32:09.498Z,16.13
2022-10-01T15:34:41.725Z,15.18
2022-10-01T15:37:18.220Z,18.70
2022-10-01T15:39:52.122Z,15.02
2022-10-01T15:42:33.411Z,16.65
2022-10-01T15:45:25.968Z,17.50
2022-10-01T15:47:58.146Z,14.25
2022-10-01T15:50:38.411Z,16.20
2022-10-01T15:55:44.357Z,16.42
2022-10-01T15:58:34.749Z,14.82
2022-10-01T16:01:09.521Z,14.68
2022-10-01T16:03:49.675Z,17.92
2022-10-01T16:06:30.074Z,14.98
2022-10-01T16:09:18.263Z,14.18
2022-10-01T16:12:11.216Z,15.43
2022-10-01T16:14:42.745Z,16.83
2022-10-01T16:17:21.605Z,16.45
2022-10-01T16:19:52.480Z,17.25
2022-10-01T16:22:24.612Z,18.90
2022-10-01T16:25:01.967Z,18.35
2022-10-01T16:27:56.026Z,20.85
2022-10-01T16:30:27.185Z,18.35
2022-10-01T16:32:57.980Z,22.40
2022-10-01T16:35:27.887Z,22.25
2022-10-01T16:37:58.241Z,20.27
2022-10-01T16:40:37.091Z,18.35
2022-10-01T16:43:10.135Z,19.23
2022-10-01T16:45:43.118Z,19.35
2022-10-01T16:48:25.569Z,20.50
2022-10-01T16:50:54.122Z,16.58
2022-10-01T16:53:25.227Z,16.45
2022-10-01T16:55:57.134Z,16.80
2022-10-01T16:58:28.343Z,18.77
2022-10-01T17:00:56.649Z,19.02
2022-10-01T17:03:25.376Z,18.25
2022-10-01T17:05:55.321Z,19.77
2022-10-01T17:08:32.365Z,23.48
2022-10-01T17:11:03.872Z,24.15
2022-10-01T17:13:36.761Z,19.67
2022-10-01T17:16:06.314Z,21.95
2022-10-01T17:18:35.038Z,23.25
2022-10-01T17:21:05.959Z,18.92
2022-10-01T17:23:38.574Z,23.98
2022-10-01T17:26:09.039Z,24.02
2022-10-01T17:28:38.094Z,23.35
2022-10-01T17:31:08.135Z,22.38
2022-10-01T17:33:50.288Z,24.45
2022-10-01T17:36:20.427Z,24.52
2022-10-01T17:38:50.075Z,22.77
2022-10-01T17:46:18.431Z,23.35
2022-10-01T17:48:49.791Z,24.52
2022-10-01T17:51:21.265Z,28.13
2022-10-01T17:53:53.111Z,23.50
2022-10-01T17:56:23.035Z,26.83
2022-10-01T17:58:55.469Z,25.50
2022-10-01T18:01:26.938Z,22.40
2022-10-01T18:03:56.656Z,25.77
2022-10-01T18:06:26.578Z,25.40
2022-10-01T18:11:29.312Z,25.25
2022-10-01T18:13:58.193Z,24.42
2022-10-01T18:16:27.758Z,32.10
2022-10-01T18:19:52.325Z,24.27
2022-10-01T18:21:48.451Z,23.98
2022-10-01T18:24:18.822Z,29.15
2022-10-01T18:26:49.190Z,24.98
2022-10-01T18:29:27.580Z,29.73
2022-10-01T18:32:18.609Z,17.42
2022-10-01T18:34:58.209Z,20.55
2022-10-01T18:37:49.067Z,10.70
2022-10-01T18:40:30.835Z,11.13
2022-10-01T18:43:32.549Z,7.78
2022-10-01T18:46:03.826Z,8.25
2022-10-01T18:48:50.934Z,9.15
2022-10-01T18:51:22.462Z,8.48
2022-10-01T18:54:11.841Z,6.07
2022-10-01T18:57:03.623Z,19.17
2022-10-01T18:59:47.948Z,15.40
2022-10-01T19:02:54.850Z,11.13
2022-10-01T19:25:43.226Z,45.53
2022-10-01T19:34:19.050Z,14.18
2022-10-01T19:37:43.572Z,9.48
2022-10-01T19:42:37.088Z,7.32
2022-10-01T19:51:09.147Z,10.13
2022-10-01T19:53:46.867Z,21.98
2022-10-01T19:56:27.981Z,14.00
2022-10-01T19:59:01.852Z,13.73
2022-10-01T20:01:46.407Z,9.60
2022-10-01T20:04:22.764Z,12.73
2022-10-01T20:06:56.709Z,14.00
2022-10-01T20:09:37.381Z,11.27
2022-10-01T20:12:48.453Z,13.82
2022-10-01T20:15:34.818Z,8.38
2022-10-01T20:18:27.773Z,10.23
2022-10-01T20:21:27.226Z,10.10
2022-10-01T20:24:11.473Z,7.57
2022-10-01T20:26:47.511Z,13.02
2022-10-01T20:29:44.937Z,11.85
2022-10-01T20:32:43.496Z,8.60
2022-10-01T20:35:27.813Z,8.18
2022-10-01T20:38:21.708Z,6.53
2022-10-01T20:40:58.439Z,7.15
2022-10-01T20:43:38.458Z,7.13
2022-10-01T20:46:35.994Z,12.35
2022-10-01T20:49:14.397Z,10.35
2022-10-01T20:52:21.450Z,10.00
2022-10-01T20:55:00.468Z,13.48
2022-10-01T20:57:49.171Z,8.32
2022-10-01T21:00:34.887Z,8.05
2022-10-01T21:03:35.268Z,18.83
2022-10-01T21:06:13.413Z,7.63
2022-10-01T21:09:11.573Z,15.60
2022-10-01T21:11:46.966Z,11.18
2022-10-01T21:14:29.711Z,7.30
2022-10-01T21:17:38.393Z,7.13
2022-10-01T21:20:34.868Z,6.43
2022-10-01T21:23:13.384Z,5.57
2022-10-01T21:26:24.622Z,5.97
2022-10-01T21:29:12.084Z,6.70
2022-10-01T21:31:59.783Z,8.48
2022-10-01T21:34:49.892Z,6.88
2022-10-01T21:37:30.470Z,7.30
2022-10-01T21:40:19.773Z,8.75
2022-10-01T21:43:06.274Z,7.50
2022-10-01T21:46:01.499Z,9.60
2022-10-01T21:49:07.741Z,10.50
2022-10-01T21:51:55.849Z,8.05
2022-10-01T21:54:39.836Z,9.60
2022-10-01T21:57:28.384Z,9.73
2022-10-01T22:00:19.671Z,8.35
2022-10-01T22:03:10.002Z,11.77
2022-10-01T22:05:58.986Z,10.70
2022-10-01T22:09:01.920Z,9.35
2022-10-01T22:11:37.475Z,8.95
2022-10-01T22:14:16.417Z,7.38
2022-10-01T22:16:56.024Z,13.15
2022-10-01T22:19:40.225Z,9.88
2022-10-01T22:22:18.429Z,10.25
2022-10-01T22:24:55.296Z,10.80
2022-10-01T22:27:30.579Z,8.93
2022-10-01T22:30:12.834Z,10.10
2022-10-01T22:33:17.700Z,9.57
2022-10-01T22:36:09.354Z,9.70
2022-10-01T22:38:46.415Z,10.07
2022-10-01T22:41:23.893Z,10.68
2022-10-01T22:43:52.253Z,11.60
2022-10-01T22:46:39.345Z,12.30
2022-10-01T22:49:24.409Z,10.93
2022-10-01T22:52:01.843Z,10.45
2022-10-01T22:55:10.902Z,13.65
2022-10-01T22:58:13.554Z,9.43
2022-10-01T23:01:12.309Z,10.40
2022-10-01T23:04:01.394Z,10.73
2022-10-01T23:07:00.223Z,9.57
2022-10-01T23:09:41.557Z,10.77
2022-10-01T23:12:24.133Z,9.82
2022-10-01T23:15:04.470Z,11.48
2022-10-01T23:17:48.158Z,14.40
2022-10-01T23:20:43.726Z,11.50
2022-10-01T23:23:33.779Z,8.93
2022-10-01T23:26:20.279Z,10.43
2022-10-01T23:29:22.657Z,11.38
2022-10-01T23:32:07.577Z,9.57
2022-10-01T23:34:52.251Z,9.55
2022-10-01T23:37:50.440Z,8.25
2022-10-01T23:40:22.649Z,8.45
2022-10-01T23:43:11.735Z,10.32
2022-10-01T23:45:48.772Z,8.70
2022-10-01T23:48:30.980Z,8.32
2022-10-01T23:51:03.451Z,11.80
2022-10-01T23:53:46.315Z,9.95
2022-10-01T23:56:50.853Z,10.13
2022-10-01T23:59:31.997Z,10.07
